Time;durP1;ratioP1;P1;durP2;ratioP2;P2;SDS_P1;SDS_P2;PMS_P1;PMS_P2;Temp;Humidity;BMP_temperature;BMP_pressure;BME280_temperature;BME280_humidity;BME280_pressure;Samples;Min_cycle;Max_cycle;Signal;HPM_P1;HPM_P2
2023/08/12 00:02:16;;;;;;;8.85;5.68;;;23.70;99.90;;;;;;4963776;28;20198;-65
2023/08/12 00:04:42;;;;;;;8.27;6.20;;;23.70;99.90;;;;;;4977524;28;20196;-65
2023/08/12 00:07:10;;;;;;;7.68;5.47;;;23.70;99.90;;;;;;4971076;28;20177;-66
2023/08/12 00:09:36;;;;;;;8.32;5.63;;;23.60;99.90;;;;;;4982877;28;20195;-66
2023/08/12 00:12:01;;;;;;;8.68;5.60;;;23.60;99.90;;;;;;4976259;28;20180;-66
2023/08/12 00:14:29;;;;;;;7.65;5.93;;;23.60;99.90;;;;;;4972680;28;20253;-70
2023/08/12 00:16:55;;;;;;;7.05;5.07;;;23.50;99.90;;;;;;4980493;28;20184;-65
2023/08/12 00:19:23;;;;;;;8.20;5.90;;;23.50;99.90;;;;;;4976405;28;20194;-66
2023/08/12 00:21:52;;;;;;;6.75;5.60;;;23.50;99.90;;;;;;4977487;28;20208;-66
2023/08/12 00:24:18;;;;;;;7.95;6.13;;;23.50;99.90;;;;;;4975002;28;20426;-66
2023/08/12 00:26:43;;;;;;;8.60;6.32;;;23.40;99.90;;;;;;4975982;28;20172;-66
2023/08/12 00:29:09;;;;;;;7.75;6.30;;;23.50;99.90;;;;;;4972493;28;20183;-66
2023/08/12 00:31:34;;;;;;;7.65;6.13;;;23.50;99.90;;;;;;4975768;28;20191;-66
2023/08/12 00:34:03;;;;;;;8.65;6.85;;;23.50;99.90;;;;;;4972802;28;20204;-66
2023/08/12 00:36:30;;;;;;;8.43;6.50;;;23.40;99.90;;;;;;4964790;28;20188;-68
2023/08/12 00:38:56;;;;;;;8.88;6.68;;;23.40;99.90;;;;;;4966701;28;20270;-68
2023/08/12 00:41:22;;;;;;;7.93;6.05;;;23.40;99.90;;;;;;4983343;28;20330;-67
2023/08/12 00:43:47;;;;;;;7.18;5.97;;;23.40;99.90;;;;;;4976113;28;20187;-67
2023/08/12 00:46:13;;;;;;;7.35;5.85;;;23.40;99.90;;;;;;4975519;28;20194;-67
2023/08/12 00:48:40;;;;;;;8.82;5.97;;;23.40;99.90;;;;;;4972212;28;20200;-67
2023/08/12 00:51:08;;;;;;;10.27;6.55;;;23.30;99.90;;;;;;4976199;28;20190;-67
2023/08/12 00:53:37;;;;;;;6.82;5.95;;;23.30;99.90;;;;;;4975472;28;20453;-67
2023/08/12 00:56:03;;;;;;;7.90;6.72;;;23.30;99.90;;;;;;4967925;28;20209;-64
2023/08/12 00:58:31;;;;;;;9.13;6.45;;;23.20;99.90;;;;;;4961312;28;20179;-66
2023/08/12 01:00:57;;;;;;;6.97;6.20;;;23.20;99.90;;;;;;4986115;28;20198;-66
2023/08/12 01:03:23;;;;;;;7.90;6.85;;;23.20;99.90;;;;;;4978831;28;20203;-66
2023/08/12 01:05:50;;;;;;;8.77;6.75;;;23.10;99.90;;;;;;4971598;28;20196;-67
2023/08/12 01:08:15;;;;;;;9.63;7.22;;;23.10;99.90;;;;;;4976051;28;20260;-65
2023/08/12 01:10:52;;;;;;;10.20;7.68;;;23.10;99.90;;;;;;4975147;28;20227;-66
2023/08/12 01:13:55;;;;;;;7.40;6.55;;;23.10;99.90;;;;;;4975223;28;20184;-66
2023/08/12 01:16:26;;;;;;;6.53;5.72;;;23.00;99.90;;;;;;5007430;28;20199;-66
2023/08/12 01:18:55;;;;;;;7.43;6.63;;;23.00;99.90;;;;;;4975831;28;20215;-67
2023/08/12 01:21:23;;;;;;;9.25;6.55;;;23.00;99.90;;;;;;4983311;28;20210;-66
2023/08/12 01:23:49;;;;;;;8.65;6.28;;;23.00;99.90;;;;;;4975349;28;20186;-66
2023/08/12 01:26:14;;;;;;;8.00;6.25;;;22.90;99.90;;;;;;4974993;28;20204;-67
2023/08/12 01:28:42;;;;;;;7.85;6.63;;;22.90;99.90;;;;;;4974856;28;20243;-66
2023/08/12 01:31:31;;;;;;;9.25;7.32;;;22.90;99.90;;;;;;4973457;28;20184;-66
2023/08/12 01:34:19;;;;;;;7.65;6.68;;;23.00;99.90;;;;;;4977978;28;20179;-66
2023/08/12 01:36:57;;;;;;;7.75;6.95;;;22.90;99.90;;;;;;4974532;28;20261;-67
2023/08/12 01:39:27;;;;;;;8.40;6.82;;;22.90;99.90;;;;;;4965426;28;20330;-66
2023/08/12 01:41:57;;;;;;;8.88;6.80;;;22.90;99.90;;;;;;4972160;28;20231;-67
2023/08/12 01:44:23;;;;;;;8.35;6.65;;;22.80;99.90;;;;;;4975646;28;20200;-67
2023/08/12 01:46:49;;;;;;;8.68;7.28;;;22.80;99.90;;;;;;4981711;28;20191;-66
2023/08/12 01:49:20;;;;;;;9.32;7.43;;;22.80;99.90;;;;;;4975042;28;20192;-66
2023/08/12 01:51:46;;;;;;;8.65;7.28;;;22.80;99.90;;;;;;4969009;28;20246;-66
2023/08/12 01:54:11;;;;;;;8.75;6.70;;;22.80;99.90;;;;;;4973928;28;20269;-66
2023/08/12 01:56:37;;;;;;;8.52;7.10;;;22.80;99.90;;;;;;4973646;28;20175;-66
2023/08/12 01:59:03;;;;;;;9.27;6.90;;;22.90;99.90;;;;;;4975153;28;20197;-67
2023/08/12 02:01:28;;;;;;;8.98;7.05;;;22.80;99.90;;;;;;4971869;28;20340;-67
2023/08/12 02:03:54;;;;;;;8.52;6.60;;;22.80;99.90;;;;;;4973956;28;20263;-66
2023/08/12 02:06:22;;;;;;;8.25;6.85;;;22.80;99.90;;;;;;4971774;28;20177;-66
2023/08/12 02:08:50;;;;;;;9.52;6.63;;;22.80;99.90;;;;;;4974949;28;20218;-67
2023/08/12 02:11:16;;;;;;;7.50;6.55;;;22.80;99.90;;;;;;4970601;28;20234;-65
2023/08/12 02:13:42;;;;;;;7.78;6.90;;;22.80;99.90;;;;;;4974789;28;20176;-66
2023/08/12 02:16:08;;;;;;;7.43;6.65;;;22.90;99.90;;;;;;4977634;28;20175;-66
2023/08/12 02:18:36;;;;;;;8.60;6.22;;;22.90;99.90;;;;;;4969891;28;20180;-66
2023/08/12 02:21:04;;;;;;;7.75;6.03;;;22.80;99.90;;;;;;4976539;28;20217;-66
2023/08/12 02:23:29;;;;;;;7.47;5.93;;;22.80;99.90;;;;;;4973473;28;20303;-66
2023/08/12 02:25:55;;;;;;;6.10;5.25;;;22.80;99.90;;;;;;4974605;28;20259;-66
2023/08/12 02:28:21;;;;;;;9.68;6.10;;;22.80;99.90;;;;;;4974447;28;20168;-66
2023/08/12 02:30:46;;;;;;;7.50;6.15;;;22.80;99.90;;;;;;4974492;28;20507;-67
2023/08/12 02:33:12;;;;;;;7.63;5.85;;;22.80;99.90;;;;;;4970776;28;20185;-66
2023/08/12 02:35:38;;;;;;;7.22;5.40;;;22.80;99.90;;;;;;4963619;28;20188;-66
2023/08/12 02:38:04;;;;;;;6.85;5.88;;;22.80;99.90;;;;;;4971260;28;20232;-67
2023/08/12 02:40:32;;;;;;;8.00;5.72;;;22.80;99.90;;;;;;4974786;28;20199;-72
2023/08/12 02:42:57;;;;;;;6.32;5.15;;;22.70;99.90;;;;;;4974351;28;20190;-73
2023/08/12 02:45:23;;;;;;;6.63;5.50;;;22.80;99.90;;;;;;4974085;28;20164;-72
2023/08/12 02:47:48;;;;;;;5.43;4.60;;;22.70;99.90;;;;;;4974425;28;20189;-73
2023/08/12 02:50:14;;;;;;;5.72;5.13;;;22.70;99.90;;;;;;4974350;28;20214;-71
2023/08/12 02:52:42;;;;;;;6.38;4.93;;;22.70;99.90;;;;;;4974220;28;20176;-71
2023/08/12 02:55:08;;;;;;;5.63;4.60;;;22.70;99.90;;;;;;4970934;28;20243;-72
2023/08/12 02:57:36;;;;;;;4.88;4.32;;;22.70;99.90;;;;;;4976134;28;20173;-72
2023/08/12 03:00:04;;;;;;;6.65;5.28;;;22.70;99.90;;;;;;4965142;28;20203;-69
2023/08/12 03:02:31;;;;;;;6.05;4.72;;;22.70;99.90;;;;;;4974289;28;20177;-72
2023/08/12 03:04:57;;;;;;;5.45;4.60;;;22.70;99.90;;;;;;4979811;28;20199;-72
2023/08/12 03:07:22;;;;;;;6.25;5.00;;;22.70;99.90;;;;;;4973466;28;20199;-70
2023/08/12 03:09:49;;;;;;;6.15;4.63;;;22.70;99.90;;;;;;4975301;28;20176;-70
2023/08/12 03:12:17;;;;;;;5.45;4.80;;;22.70;99.90;;;;;;4968382;28;20203;-69
2023/08/12 03:14:45;;;;;;;4.78;4.28;;;22.70;99.90;;;;;;5005730;28;20243;-72
2023/08/12 03:17:10;;;;;;;5.70;4.80;;;22.70;99.90;;;;;;4985835;28;20207;-72
2023/08/12 03:19:38;;;;;;;4.82;4.32;;;22.70;99.90;;;;;;4976139;28;20176;-70
2023/08/12 03:22:04;;;;;;;4.97;4.47;;;22.70;99.90;;;;;;4961717;28;20291;-73
2023/08/12 03:24:30;;;;;;;5.05;4.55;;;22.60;99.90;;;;;;4976138;28;20474;-70
2023/08/12 03:27:00;;;;;;;5.18;4.68;;;22.60;99.90;;;;;;4979126;28;20188;-72
2023/08/12 03:29:30;;;;;;;6.45;5.43;;;22.60;99.90;;;;;;4975330;28;20318;-73
2023/08/12 03:31:56;;;;;;;5.32;4.57;;;22.60;99.90;;;;;;4966682;28;20291;-72
2023/08/12 03:34:21;;;;;;;4.35;3.95;;;22.60;99.90;;;;;;4976914;28;20315;-70
2023/08/12 03:36:48;;;;;;;4.93;4.22;;;22.60;99.90;;;;;;4976652;28;20187;-73
2023/08/12 03:39:16;;;;;;;6.03;4.65;;;22.50;99.90;;;;;;4972225;28;20176;-73
2023/08/12 03:41:43;;;;;;;5.85;4.40;;;22.50;99.90;;;;;;4974375;28;20193;-68
2023/08/12 03:44:08;;;;;;;5.97;4.00;;;22.50;99.90;;;;;;4977183;28;20187;-71
2023/08/12 03:46:34;;;;;;;5.18;4.43;;;22.50;99.90;;;;;;4976790;28;20172;-72
2023/08/12 03:49:00;;;;;;;4.97;4.13;;;22.50;99.90;;;;;;4981675;28;20219;-73
2023/08/12 03:51:30;;;;;;;5.75;4.65;;;22.40;99.90;;;;;;4976512;28;20507;-73
2023/08/12 03:53:57;;;;;;;5.10;4.60;;;22.40;99.90;;;;;;4984892;28;20187;-72
2023/08/12 03:56:25;;;;;;;4.70;4.30;;;22.40;99.90;;;;;;4976238;28;20180;-70
2023/08/12 03:58:51;;;;;;;4.75;4.25;;;22.40;99.90;;;;;;4972310;28;20185;-72
2023/08/12 04:01:17;;;;;;;4.60;4.20;;;22.40;99.90;;;;;;4974898;28;20200;-71
2023/08/12 04:03:45;;;;;;;5.10;4.47;;;22.40;99.90;;;;;;4974203;28;20752;-72
2023/08/12 04:06:12;;;;;;;4.35;3.92;;;22.40;99.90;;;;;;4957428;28;20220;-71
2023/08/12 04:08:38;;;;;;;5.30;4.15;;;22.30;99.90;;;;;;4975993;28;20184;-73
2023/08/12 04:11:04;;;;;;;4.15;3.75;;;22.30;99.90;;;;;;4975743;28;20184;-72
2023/08/12 04:13:30;;;;;;;4.25;3.60;;;22.30;99.90;;;;;;4970799;28;20185;-74
2023/08/12 04:15:57;;;;;;;4.97;3.92;;;22.20;99.90;;;;;;4971796;28;20204;-68
2023/08/12 04:18:25;;;;;;;5.32;3.80;;;22.20;99.90;;;;;;4981886;28;20172;-72
2023/08/12 04:20:52;;;;;;;4.68;4.00;;;22.20;99.90;;;;;;4973405;28;20219;-73
2023/08/12 04:23:22;;;;;;;4.60;3.65;;;22.20;99.90;;;;;;4976675;28;20183;-70
2023/08/12 04:25:49;;;;;;;4.35;3.95;;;22.10;99.90;;;;;;4982636;28;20208;-73
2023/08/12 04:28:18;;;;;;;4.50;3.92;;;22.10;99.90;;;;;;4974613;28;20188;-70
2023/08/12 04:30:45;;;;;;;5.47;4.28;;;22.10;99.90;;;;;;4972023;28;20192;-73
2023/08/12 04:33:13;;;;;;;5.15;4.18;;;22.10;99.90;;;;;;4971612;28;20419;-72
2023/08/12 04:35:40;;;;;;;5.57;4.35;;;22.10;99.90;;;;;;4972269;28;20209;-72
2023/08/12 04:38:05;;;;;;;4.05;3.63;;;22.10;99.90;;;;;;4959564;28;20432;-72
2023/08/12 04:40:31;;;;;;;4.60;4.13;;;22.00;99.90;;;;;;4974838;28;20215;-73
2023/08/12 04:42:59;;;;;;;4.20;3.80;;;22.00;99.90;;;;;;4967508;28;20184;-71
2023/08/12 04:45:24;;;;;;;5.22;4.32;;;22.00;99.90;;;;;;4975609;28;20184;-72
2023/08/12 04:47:50;;;;;;;4.97;4.38;;;22.00;99.90;;;;;;4989814;28;20206;-74
2023/08/12 04:50:16;;;;;;;5.60;4.53;;;22.00;99.90;;;;;;4974638;28;20199;-69
2023/08/12 04:52:41;;;;;;;5.80;5.20;;;22.00;99.90;;;;;;4974321;28;20201;-70
2023/08/12 04:55:08;;;;;;;5.07;4.57;;;22.00;99.90;;;;;;4971636;28;20195;-71
2023/08/12 04:57:33;;;;;;;6.10;4.72;;;22.00;99.90;;;;;;4961725;28;20246;-70
2023/08/12 04:59:59;;;;;;;5.50;4.55;;;22.00;99.90;;;;;;4974617;28;20294;-73
2023/08/12 05:02:24;;;;;;;6.20;5.05;;;22.00;99.90;;;;;;4976118;28;20183;-73
2023/08/12 05:04:53;;;;;;;4.72;4.32;;;22.00;99.90;;;;;;4978725;28;20183;-73
2023/08/12 05:07:19;;;;;;;5.40;4.75;;;21.90;99.90;;;;;;4975840;28;20173;-71
2023/08/12 05:09:44;;;;;;;7.10;5.55;;;22.00;99.90;;;;;;4991696;28;20171;-73
2023/08/12 05:12:14;;;;;;;7.35;5.57;;;22.00;99.90;;;;;;4972121;28;20200;-69
2023/08/12 05:14:40;;;;;;;6.50;5.65;;;22.00;99.90;;;;;;4968264;28;20203;-69
2023/08/12 05:17:06;;;;;;;6.53;5.68;;;22.10;99.90;;;;;;4975431;28;20203;-72
2023/08/12 05:19:35;;;;;;;5.57;5.07;;;22.10;99.90;;;;;;4975157;28;20204;-72
2023/08/12 05:22:03;;;;;;;7.78;5.65;;;22.20;99.90;;;;;;4977288;28;20196;-72
2023/08/12 05:24:28;;;;;;;6.85;6.15;;;22.30;99.90;;;;;;4977957;28;20210;-72
2023/08/12 05:26:54;;;;;;;7.20;6.50;;;22.30;99.90;;;;;;4976916;28;20180;-74
2023/08/12 05:29:20;;;;;;;7.05;6.13;;;22.40;99.90;;;;;;4977001;28;20187;-70
2023/08/12 05:31:47;;;;;;;6.43;5.82;;;22.40;99.90;;;;;;4974643;28;20187;-73
2023/08/12 05:34:18;;;;;;;6.32;5.72;;;22.50;99.90;;;;;;4971320;28;20184;-73
2023/08/12 05:36:43;;;;;;;6.32;5.22;;;22.50;99.90;;;;;;4966737;28;20184;-73
2023/08/12 05:39:11;;;;;;;6.22;5.70;;;22.60;99.90;;;;;;4970004;28;20190;-72
2023/08/12 05:41:37;;;;;;;5.63;5.13;;;22.60;99.90;;;;;;4971007;28;20228;-74
2023/08/12 05:44:03;;;;;;;5.72;5.22;;;22.60;99.90;;;;;;4974994;28;20199;-74
2023/08/12 05:46:29;;;;;;;6.95;6.20;;;22.70;99.90;;;;;;4974021;28;20418;-72
2023/08/12 05:48:57;;;;;;;5.50;5.00;;;22.70;99.90;;;;;;4973935;28;20471;-73
2023/08/12 05:51:25;;;;;;;4.63;4.22;;;22.80;99.90;;;;;;4971609;28;20176;-74
2023/08/12 05:53:51;;;;;;;4.60;4.20;;;22.80;99.90;;;;;;4974114;28;20211;-74
2023/08/12 05:56:19;;;;;;;4.70;4.30;;;22.90;99.90;;;;;;4974747;28;20176;-71
2023/08/12 05:58:45;;;;;;;4.47;4.07;;;22.90;99.90;;;;;;4971140;28;20256;-72
2023/08/12 06:01:12;;;;;;;4.15;3.65;;;22.90;99.90;;;;;;4959848;28;20298;-74
2023/08/12 06:03:40;;;;;;;4.00;3.70;;;22.90;99.90;;;;;;4968936;28;20184;-71
2023/08/12 06:06:06;;;;;;;4.82;3.70;;;22.90;99.90;;;;;;4982902;28;20181;-72
2023/08/12 06:08:32;;;;;;;4.13;3.40;;;22.80;99.90;;;;;;4967647;28;20176;-74
2023/08/12 06:10:57;;;;;;;4.00;3.60;;;22.80;99.90;;;;;;5003412;28;20451;-71
2023/08/12 06:13:25;;;;;;;3.83;3.40;;;22.70;99.90;;;;;;4965064;28;20184;-70
2023/08/12 06:15:51;;;;;;;3.60;2.90;;;22.60;99.90;;;;;;4997968;28;20184;-74
2023/08/12 06:18:16;;;;;;;3.00;2.70;;;22.50;99.90;;;;;;4961606;28;20271;-71
2023/08/12 06:20:42;;;;;;;2.72;2.40;;;22.40;99.90;;;;;;4984961;28;20200;-74
2023/08/12 06:23:08;;;;;;;3.67;3.30;;;22.30;99.90;;;;;;4974535;28;20168;-72
2023/08/12 06:25:36;;;;;;;2.90;2.53;;;22.20;99.90;;;;;;4973645;28;20187;-73
2023/08/12 06:28:04;;;;;;;4.22;2.25;;;22.10;99.90;;;;;;4969335;28;20279;-73
2023/08/12 06:30:33;;;;;;;2.83;2.35;;;22.00;99.90;;;;;;4971762;28;20179;-70
2023/08/12 06:32:58;;;;;;;3.05;2.03;;;21.90;99.90;;;;;;4967663;28;20202;-72
2023/08/12 06:35:24;;;;;;;2.63;1.80;;;21.90;99.90;;;;;;4974118;28;20199;-74
2023/08/12 06:37:50;;;;;;;2.55;2.28;;;21.80;99.90;;;;;;4964824;28;20269;-70
2023/08/12 06:40:20;;;;;;;3.35;2.60;;;21.80;99.90;;;;;;4974079;28;20200;-72
2023/08/12 06:42:45;;;;;;;3.28;2.50;;;21.80;99.90;;;;;;4969457;28;20182;-74
2023/08/12 06:45:11;;;;;;;4.90;2.40;;;21.80;99.90;;;;;;4975224;28;20201;-72
2023/08/12 06:47:37;;;;;;;2.30;2.10;;;21.80;99.90;;;;;;4972617;28;20222;-73
2023/08/12 06:50:03;;;;;;;3.28;2.50;;;21.80;99.90;;;;;;4978143;28;20437;-72
2023/08/12 06:52:28;;;;;;;2.55;1.85;;;21.80;99.90;;;;;;4978165;28;20171;-72
2023/08/12 06:54:54;;;;;;;2.40;2.20;;;21.90;99.90;;;;;;4970459;28;20184;-71
2023/08/12 06:57:22;;;;;;;3.53;2.10;;;21.90;99.90;;;;;;4983051;28;20198;-71
2023/08/12 06:59:48;;;;;;;2.60;2.40;;;22.00;99.90;;;;;;4987870;28;20187;-71
2023/08/12 07:02:16;;;;;;;2.30;2.00;;;22.00;99.90;;;;;;4978165;28;20176;-70
2023/08/12 07:04:42;;;;;;;2.88;2.50;;;22.00;99.90;;;;;;4978051;28;20184;-68
2023/08/12 07:07:10;;;;;;;2.63;2.40;;;22.10;99.90;;;;;;4974648;28;20203;-71
2023/08/12 07:09:38;;;;;;;2.90;2.10;;;22.10;99.90;;;;;;4958599;29;20272;-71
2023/08/12 07:12:04;;;;;;;2.03;1.80;;;22.20;99.90;;;;;;4967424;28;20172;-71
2023/08/12 07:14:30;;;;;;;2.83;2.20;;;22.30;99.90;;;;;;4977228;28;20191;-69
2023/08/12 07:16:55;;;;;;;2.80;2.20;;;22.30;99.90;;;;;;4973403;28;20191;-74
2023/08/12 07:19:22;;;;;;;2.40;2.13;;;22.40;99.90;;;;;;4988624;28;20246;-70
2023/08/12 07:21:50;;;;;;;2.80;2.45;;;22.40;99.90;;;;;;4986439;28;20207;-72
2023/08/12 07:24:15;;;;;;;3.35;2.13;;;22.50;99.90;;;;;;4994267;28;21966;-69
2023/08/12 07:26:43;;;;;;;2.25;2.00;;;22.50;99.90;;;;;;4976803;28;20172;-72
2023/08/12 07:29:09;;;;;;;2.95;2.20;;;22.50;99.90;;;;;;4983660;28;20203;-72
2023/08/12 07:31:35;;;;;;;2.20;1.70;;;22.60;99.90;;;;;;4978783;28;20179;-71
2023/08/12 07:34:00;;;;;;;2.10;1.80;;;22.60;99.90;;;;;;4979996;28;20238;-67
2023/08/12 07:36:28;;;;;;;2.15;1.85;;;22.60;99.90;;;;;;4976900;28;20298;-73
2023/08/12 07:38:54;;;;;;;4.07;1.88;;;22.70;99.90;;;;;;4969880;28;20194;-72
2023/08/12 07:41:20;;;;;;;2.75;1.70;;;22.70;99.90;;;;;;4967347;28;20205;-71
2023/08/12 07:43:48;;;;;;;2.72;1.85;;;22.70;99.90;;;;;;4977200;28;20184;-69
2023/08/12 07:46:15;;;;;;;2.00;1.75;;;22.70;99.90;;;;;;4976909;28;20176;-71
2023/08/12 07:48:41;;;;;;;2.22;1.90;;;22.80;99.90;;;;;;4976182;28;20191;-73
2023/08/12 07:51:09;;;;;;;2.35;1.70;;;22.80;99.90;;;;;;4983153;28;20194;-73
2023/08/12 07:53:37;;;;;;;2.53;1.95;;;22.80;99.90;;;;;;4974430;28;20191;-70
2023/08/12 07:56:03;;;;;;;2.75;1.80;;;22.90;99.90;;;;;;4975369;28;20185;-71
2023/08/12 07:58:31;;;;;;;2.30;1.90;;;23.00;99.90;;;;;;4975648;28;20200;-71
2023/08/12 08:00:59;;;;;;;3.25;1.92;;;23.00;99.90;;;;;;4975781;28;20293;-71
2023/08/12 08:03:25;;;;;;;1.73;1.58;;;23.10;99.90;;;;;;4976001;28;20195;-71
2023/08/12 08:05:57;;;;;;;2.47;1.77;;;23.20;99.90;;;;;;4970413;28;20191;-72
2023/08/12 08:08:22;;;;;;;2.60;1.80;;;23.20;99.90;;;;;;4975622;28;20177;-73
2023/08/12 08:10:53;;;;;;;2.33;1.67;;;23.30;99.90;;;;;;4977050;28;20242;-69
2023/08/12 08:13:18;;;;;;;2.40;1.90;;;23.30;99.90;;;;;;4976622;28;20189;-72
2023/08/12 08:15:49;;;;;;;3.60;1.80;;;23.40;99.90;;;;;;4968013;28;20204;-70
2023/08/12 08:18:14;;;;;;;1.75;1.52;;;23.40;99.90;;;;;;4974832;28;20215;-69
2023/08/12 08:20:45;;;;;;;2.00;1.80;;;23.40;99.90;;;;;;4970981;28;20219;-72
2023/08/12 08:23:11;;;;;;;3.22;1.75;;;23.40;99.90;;;;;;4976580;28;20184;-73
2023/08/12 08:25:37;;;;;;;2.20;1.73;;;23.40;99.90;;;;;;4976064;28;20258;-72
2023/08/12 08:28:08;;;;;;;1.90;1.40;;;23.50;99.90;;;;;;4976996;28;20199;-73
2023/08/12 08:30:39;;;;;;;2.17;1.70;;;23.50;99.90;;;;;;4982156;28;20184;-70
2023/08/12 08:33:05;;;;;;;1.70;1.40;;;23.50;99.90;;;;;;4975589;28;20181;-73
2023/08/12 08:35:31;;;;;;;2.80;1.67;;;23.60;99.90;;;;;;4982974;28;20219;-71
2023/08/12 08:37:59;;;;;;;2.85;1.60;;;23.60;99.90;;;;;;4970735;28;20196;-68
2023/08/12 08:40:30;;;;;;;2.22;1.60;;;23.70;99.90;;;;;;4970741;28;20416;-72
2023/08/12 08:43:01;;;;;;;2.20;1.85;;;23.70;99.90;;;;;;4973757;28;20177;-72
2023/08/12 08:45:29;;;;;;;1.95;1.60;;;23.70;99.90;;;;;;4973295;28;20260;-73
2023/08/12 08:47:58;;;;;;;2.13;1.50;;;23.70;99.90;;;;;;4971901;28;20188;-73
2023/08/12 08:50:24;;;;;;;1.77;1.48;;;23.80;99.90;;;;;;4964074;28;20192;-74
2023/08/12 08:52:51;;;;;;;1.60;1.40;;;23.80;99.90;;;;;;4965259;28;20270;-71
2023/08/12 08:55:17;;;;;;;1.65;1.42;;;23.80;99.90;;;;;;4975723;28;20200;-74
2023/08/12 08:57:44;;;;;;;2.15;1.50;;;23.90;99.90;;;;;;4976174;28;20282;-71
2023/08/12 09:00:11;;;;;;;1.88;1.58;;;23.90;99.90;;;;;;4975809;28;20298;-69
2023/08/12 09:02:39;;;;;;;1.63;1.30;;;23.90;99.90;;;;;;4976082;28;20180;-75
2023/08/12 09:05:08;;;;;;;2.05;1.55;;;24.00;99.90;;;;;;4975525;28;20180;-74
2023/08/12 09:07:34;;;;;;;1.60;1.48;;;24.10;99.90;;;;;;4964878;28;20200;-74
2023/08/12 09:10:03;;;;;;;1.90;1.45;;;24.10;99.90;;;;;;4968549;28;20181;-73
2023/08/12 09:12:31;;;;;;;2.28;1.77;;;24.10;99.90;;;;;;4959184;28;20187;-70
2023/08/12 09:14:56;;;;;;;1.88;1.50;;;24.20;99.90;;;;;;4976107;28;20359;-73
2023/08/12 09:17:22;;;;;;;2.28;1.95;;;24.20;99.90;;;;;;4975043;28;20468;-74
2023/08/12 09:19:51;;;;;;;1.50;1.40;;;24.20;99.90;;;;;;4994790;28;20195;-73
2023/08/12 09:22:18;;;;;;;1.42;1.33;;;24.20;99.90;;;;;;4976801;28;20195;-72
2023/08/12 09:24:44;;;;;;;2.95;1.55;;;24.30;99.90;;;;;;4975573;28;20176;-67
2023/08/12 09:27:11;;;;;;;2.00;1.50;;;24.30;99.90;;;;;;4974993;28;20244;-74
2023/08/12 09:29:38;;;;;;;1.75;1.52;;;24.30;99.90;;;;;;4972036;28;20180;-74
2023/08/12 09:32:13;;;;;;;2.17;1.77;;;24.30;99.90;;;;;;4974905;28;20191;-72
2023/08/12 09:35:16;;;;;;;3.05;1.60;;;24.30;99.90;;;;;;4974154;28;20176;-72
2023/08/12 09:37:41;;;;;;;2.22;1.70;;;24.30;99.90;;;;;;4959937;28;20278;-74
2023/08/12 09:40:15;;;;;;;2.13;1.58;;;24.40;99.90;;;;;;4971647;28;20291;-69
2023/08/12 09:42:47;;;;;;;1.70;1.60;;;24.40;99.90;;;;;;4961525;28;20267;-73
2023/08/12 09:45:20;;;;;;;1.98;1.45;;;24.50;99.90;;;;;;4974788;28;20175;-74
2023/08/12 09:47:50;;;;;;;2.30;1.90;;;24.50;99.90;;;;;;4977082;28;20640;-69
2023/08/12 09:50:18;;;;;;;1.63;1.50;;;24.60;99.90;;;;;;4973462;28;20199;-74
2023/08/12 09:52:44;;;;;;;2.38;1.70;;;24.70;99.90;;;;;;4973058;28;20283;-73
2023/08/12 09:55:15;;;;;;;1.90;1.50;;;24.80;99.90;;;;;;4974706;28;20434;-72
2023/08/12 09:57:43;;;;;;;2.40;1.65;;;24.90;99.90;;;;;;4966672;28;20176;-74
2023/08/12 10:00:13;;;;;;;2.00;1.60;;;25.00;99.90;;;;;;4974252;28;20188;-75
2023/08/12 10:02:41;;;;;;;1.85;1.50;;;25.10;99.90;;;;;;4973732;28;20196;-74
2023/08/12 10:05:15;;;;;;;2.17;1.60;;;25.20;99.90;;;;;;4968560;28;20240;-72
2023/08/12 10:07:43;;;;;;;1.67;1.40;;;25.20;99.90;;;;;;4972457;28;20210;-71
2023/08/12 10:10:09;;;;;;;2.08;1.48;;;25.20;99.90;;;;;;4972881;28;20168;-74
2023/08/12 10:12:37;;;;;;;1.38;1.27;;;25.20;99.90;;;;;;4974973;28;20318;-74
2023/08/12 10:15:08;;;;;;;1.65;1.40;;;25.20;99.90;;;;;;4962637;28;20205;-74
2023/08/12 10:17:37;;;;;;;1.90;1.40;;;25.20;99.90;;;;;;4968422;28;20274;-72
2023/08/12 10:20:08;;;;;;;1.40;1.17;;;25.20;99.90;;;;;;4968342;28;20414;-74
2023/08/12 10:22:38;;;;;;;1.88;1.40;;;25.20;99.90;;;;;;4973579;28;20244;-74
2023/08/12 10:25:04;;;;;;;4.25;1.60;;;25.10;99.90;;;;;;4960176;28;20172;-73
2023/08/12 10:27:30;;;;;;;1.83;1.55;;;25.10;99.90;;;;;;4972935;28;20172;-74
2023/08/12 10:30:03;;;;;;;2.20;1.38;;;25.00;99.90;;;;;;4973428;28;20183;-75
2023/08/12 10:32:31;;;;;;;1.60;1.30;;;25.00;99.90;;;;;;4965682;28;20192;-75
2023/08/12 10:35:00;;;;;;;2.03;1.60;;;25.00;99.90;;;;;;4974692;28;20199;-74
2023/08/12 10:37:32;;;;;;;2.70;1.60;;;25.00;99.90;;;;;;4974842;28;20200;-76
2023/08/12 10:39:58;;;;;;;1.98;1.50;;;25.00;99.90;;;;;;4971723;28;20177;-74
2023/08/12 10:42:43;;;;;;;2.63;1.42;;;25.00;99.90;;;;;;4979223;28;20279;-75
2023/08/12 10:45:11;;;;;;;1.50;1.40;;;25.10;99.90;;;;;;4972593;28;20172;-73
2023/08/12 10:48:04;;;;;;;1.98;1.67;;;25.10;99.90;;;;;;4972563;28;20277;-72
2023/08/12 10:50:31;;;;;;;2.10;1.50;;;25.20;99.90;;;;;;4968017;28;20231;-66
2023/08/12 10:52:57;;;;;;;1.60;1.50;;;25.20;99.90;;;;;;4974475;28;20192;-66
2023/08/12 10:55:25;;;;;;;2.03;1.48;;;25.30;99.90;;;;;;4974812;28;20540;-65
2023/08/12 10:57:53;;;;;;;1.75;1.30;;;25.30;99.90;;;;;;4974663;28;20195;-66
2023/08/12 11:00:58;;;;;;;1.65;1.55;;;25.40;99.90;;;;;;5132489;27;20544;-65
2023/08/12 11:03:24;;;;;;;3.72;1.40;;;25.40;99.90;;;;;;5131025;28;20231;-64
2023/08/12 11:05:50;;;;;;;1.77;1.58;;;25.50;99.90;;;;;;5115194;28;20169;-64
2023/08/12 11:08:23;;;;;;;1.88;1.40;;;25.50;99.90;;;;;;5094841;28;20206;-64
2023/08/12 11:10:49;;;;;;;2.05;1.58;;;25.50;99.90;;;;;;5092911;28;20411;-65
2023/08/12 11:13:18;;;;;;;3.25;1.90;;;25.40;99.90;;;;;;5090027;28;20497;-64
2023/08/12 11:15:47;;;;;;;2.28;2.00;;;25.50;99.90;;;;;;5091767;28;20228;-65
2023/08/12 11:18:22;;;;;;;2.40;1.77;;;25.40;99.90;;;;;;5107618;28;20171;-64
2023/08/12 11:20:51;;;;;;;2.97;2.10;;;25.40;99.90;;;;;;5124852;27;20199;-65
2023/08/12 11:23:17;;;;;;;2.45;2.22;;;25.40;99.90;;;;;;5092846;28;20362;-65
2023/08/12 11:25:49;;;;;;;2.20;2.00;;;25.40;99.90;;;;;;5119452;28;20228;-63
2023/08/12 11:28:17;;;;;;;2.88;2.08;;;25.30;99.90;;;;;;5089210;28;20274;-65
2023/08/12 11:30:43;;;;;;;3.65;2.03;;;25.30;99.90;;;;;;5093894;28;20175;-64
2023/08/12 11:33:09;;;;;;;2.72;1.90;;;25.30;99.90;;;;;;5093619;28;20180;-64
2023/08/12 11:35:37;;;;;;;2.63;1.85;;;25.30;99.90;;;;;;5096040;28;20218;-65
2023/08/12 11:38:05;;;;;;;2.22;1.80;;;25.30;99.90;;;;;;5125028;27;20176;-65
2023/08/12 11:40:35;;;;;;;1.70;1.52;;;25.30;99.90;;;;;;5094295;28;20282;-65
2023/08/12 11:43:03;;;;;;;1.60;1.35;;;25.40;99.90;;;;;;5101093;28;20174;-64
2023/08/12 11:45:31;;;;;;;1.80;1.50;;;25.50;99.90;;;;;;5094039;28;20187;-65
2023/08/12 11:47:58;;;;;;;1.30;1.17;;;25.50;99.90;;;;;;5087473;28;20319;-65
2023/08/12 11:50:26;;;;;;;1.77;1.17;;;25.60;99.90;;;;;;5092304;28;20262;-66
2023/08/12 11:53:01;;;;;;;1.20;1.00;;;25.70;99.90;;;;;;5122190;28;20172;-66
2023/08/12 11:55:29;;;;;;;1.85;0.90;;;25.80;99.90;;;;;;5088249;28;20201;-65
2023/08/12 11:57:55;;;;;;;1.55;1.00;;;26.00;99.90;;;;;;5093094;28;20201;-65
2023/08/12 12:00:23;;;;;;;1.67;1.00;;;26.10;99.90;;;;;;5126262;28;20211;-65
2023/08/12 12:02:52;;;;;;;1.30;0.90;;;26.20;99.90;;;;;;5091625;28;20192;-65
2023/08/12 12:05:23;;;;;;;1.83;1.10;;;26.20;99.90;;;;;;5090745;28;20180;-65
2023/08/12 12:07:49;;;;;;;1.50;1.20;;;26.30;99.90;;;;;;5099358;28;20210;-65
2023/08/12 12:10:27;;;;;;;2.05;1.45;;;26.40;99.90;;;;;;5091033;28;20266;-66
2023/08/12 12:12:55;;;;;;;1.90;1.63;;;26.40;99.90;;;;;;5075000;28;20180;-65
2023/08/12 12:15:20;;;;;;;1.85;1.17;;;26.50;99.90;;;;;;5077136;28;20312;-66
2023/08/12 12:17:48;;;;;;;1.30;1.10;;;26.60;99.90;;;;;;5081108;28;20222;-66
2023/08/12 12:20:14;;;;;;;1.25;1.10;;;26.60;99.90;;;;;;5073494;28;20493;-66
2023/08/12 12:22:46;;;;;;;3.97;1.08;;;26.60;99.90;;;;;;5078439;28;20262;-66
2023/08/12 12:25:16;;;;;;;1.10;0.90;;;26.60;99.90;;;;;;5084886;28;20217;-66
2023/08/12 12:27:43;;;;;;;2.20;1.00;;;26.70;99.90;;;;;;5078842;28;20179;-64
2023/08/12 12:30:12;;;;;;;1.17;1.00;;;26.70;99.90;;;;;;5106000;27;20211;-65
2023/08/12 12:32:38;;;;;;;1.08;0.93;;;26.70;99.90;;;;;;5101522;28;20172;-64
2023/08/12 12:35:07;;;;;;;1.20;0.80;;;26.70;99.90;;;;;;5079410;28;20336;-67
2023/08/12 12:37:33;;;;;;;0.80;0.80;;;26.70;99.90;;;;;;5081962;28;20508;-65
2023/08/12 12:39:59;;;;;;;0.90;0.80;;;26.60;99.90;;;;;;5096251;28;20329;-66
2023/08/12 12:42:24;;;;;;;1.17;0.98;;;26.60;99.90;;;;;;5077856;28;20292;-65
2023/08/12 12:44:50;;;;;;;1.08;0.80;;;26.60;99.90;;;;;;5080038;28;20282;-65
2023/08/12 12:47:16;;;;;;;1.20;0.85;;;26.50;99.90;;;;;;5074865;28;20478;-66
2023/08/12 12:49:44;;;;;;;1.10;0.82;;;26.60;99.90;;;;;;5068042;28;20237;-65
2023/08/12 12:52:10;;;;;;;1.25;0.70;;;26.50;99.90;;;;;;5076994;28;20232;-64